createdAt,value
2016-12-29T00:00:09.211Z,6.74
2016-12-29T00:01:43.097Z,6.82
2016-12-29T00:03:16.632Z,6.86
2016-12-29T00:04:50.880Z,6.72
2016-12-29T00:06:24.866Z,6.85
2016-12-29T00:07:58.875Z,6.86
2016-12-29T00:09:32.952Z,6.75
2016-12-29T00:11:06.362Z,6.85
2016-12-29T00:12:59.767Z,6.89
2016-12-29T00:14:33.387Z,6.71
2016-12-29T00:16:07.967Z,6.74
2016-12-29T00:17:41.887Z,6.75
2016-12-29T00:19:16.696Z,6.75
2016-12-29T00:20:50.241Z,6.59
2016-12-29T00:22:24.034Z,6.72
2016-12-29T00:23:54.380Z,6.72
2016-12-29T00:25:28.084Z,6.77
2016-12-29T00:27:01.889Z,6.8
2016-12-29T00:28:35.883Z,6.9
2016-12-29T00:30:09.209Z,6.78
2016-12-29T00:31:42.864Z,6.6
2016-12-29T00:33:16.722Z,6.43
2016-12-29T00:34:49.981Z,6.46
2016-12-29T00:36:23.283Z,6.49
2016-12-29T00:37:56.573Z,6.39
2016-12-29T00:39:31.326Z,6.22
2016-12-29T00:41:24.337Z,6.01
2016-12-29T00:42:58.486Z,5.97
2016-12-29T00:44:32.063Z,5.83
2016-12-29T00:46:06.094Z,5.76
2016-12-29T00:47:40.318Z,5.72
2016-12-29T00:49:15.722Z,5.65
2016-12-29T00:50:49.871Z,5.58
2016-12-29T00:52:23.880Z,5.55
2016-12-29T00:53:57.877Z,5.46
2016-12-29T00:55:32.563Z,5.31
2016-12-29T00:57:27.591Z,5.26
2016-12-29T00:59:00.965Z,5.26
2016-12-29T01:00:34.549Z,5.16
2016-12-29T01:02:08.178Z,5.28
2016-12-29T01:03:42.519Z,5.12
2016-12-29T01:05:16.050Z,5.05
2016-12-29T01:06:47.978Z,4.95
2016-12-29T01:08:21.328Z,4.94
2016-12-29T01:09:55.286Z,4.76
2016-12-29T01:11:29.179Z,4.74
2016-12-29T01:13:02.562Z,4.63
2016-12-29T01:14:36.691Z,4.57
2016-12-29T01:16:10.292Z,4.53
2016-12-29T01:17:44.000Z,4.63
2016-12-29T01:19:17.255Z,4.56
2016-12-29T01:20:51.256Z,4.5
2016-12-29T01:22:25.028Z,4.49
2016-12-29T01:24:17.990Z,4.43
2016-12-29T01:25:51.512Z,4.39
2016-12-29T01:27:24.764Z,4.25
2016-12-29T01:28:53.453Z,4.3
2016-12-29T01:30:07.577Z,4.38
2016-12-29T01:31:36.856Z,4.4
2016-12-29T01:33:10.149Z,4.31
2016-12-29T01:34:43.716Z,4.14
2016-12-29T01:36:17.331Z,4.06
2016-12-29T01:37:50.625Z,4.12
2016-12-29T01:39:24.830Z,4.09
2016-12-29T01:40:58.351Z,4.03
2016-12-29T01:42:32.007Z,3.95
2016-12-29T01:44:32.724Z,3.92
2016-12-29T01:46:05.997Z,3.85
2016-12-29T01:47:39.601Z,3.7
2016-12-29T01:49:13.597Z,3.68
2016-12-29T01:50:47.274Z,3.66
2016-12-29T01:52:20.589Z,3.56
2016-12-29T01:53:54.032Z,3.56
2016-12-29T01:55:28.265Z,3.55
2016-12-29T01:57:01.516Z,3.55
2016-12-29T01:58:35.024Z,3.45
2016-12-29T02:00:03.210Z,3.41
2016-12-29T02:01:36.831Z,3.4
2016-12-29T02:03:10.324Z,3.37
2016-12-29T02:04:43.600Z,3.41
2016-12-29T02:06:17.358Z,3.26
2016-12-29T02:07:45.987Z,3.22
2016-12-29T02:09:19.288Z,3.21
2016-12-29T02:10:52.798Z,3.06
2016-12-29T02:12:26.626Z,3.06
2016-12-29T02:13:59.948Z,3.09
2016-12-29T02:15:33.513Z,3.21
2016-12-29T02:17:07.227Z,3.19
2016-12-29T02:18:40.745Z,3.12
2016-12-29T02:20:14.151Z,3.16
2016-12-29T02:21:47.890Z,3.18
2016-12-29T02:23:21.625Z,3.05
2016-12-29T02:24:55.189Z,3.01
2016-12-29T02:26:28.429Z,3.08
2016-12-29T02:28:01.665Z,2.95
2016-12-29T02:29:35.133Z,2.93
2016-12-29T02:31:28.197Z,2.91
2016-12-29T02:33:01.420Z,2.77
2016-12-29T02:34:36.937Z,2.76
2016-12-29T02:36:10.520Z,2.79
2016-12-29T02:37:44.771Z,2.73
2016-12-29T02:39:18.010Z,2.77
2016-12-29T02:40:51.305Z,2.73
2016-12-29T02:42:24.624Z,2.69
2016-12-29T02:43:58.415Z,2.59
2016-12-29T02:45:31.701Z,2.58
2016-12-29T02:47:05.515Z,2.79
2016-12-29T02:48:38.792Z,2.69
2016-12-29T02:50:12.920Z,2.64
2016-12-29T02:51:46.942Z,2.54
2016-12-29T02:53:40.616Z,2.59
2016-12-29T02:55:13.923Z,2.59
2016-12-29T02:56:47.456Z,2.76
2016-12-29T02:58:22.208Z,3.05
2016-12-29T02:59:55.445Z,3.41
2016-12-29T03:01:28.933Z,3.41
2016-12-29T03:03:02.679Z,3.52
2016-12-29T03:04:36.029Z,3.64
2016-12-29T03:06:09.366Z,3.56
2016-12-29T03:07:43.052Z,3.53
2016-12-29T03:09:16.796Z,3.76
2016-12-29T03:10:50.332Z,3.78
2016-12-29T03:12:23.851Z,3.88
2016-12-29T03:13:57.087Z,3.89
2016-12-29T03:15:30.925Z,3.81
2016-12-29T03:17:04.774Z,3.86
2016-12-29T03:18:38.293Z,3.85
2016-12-29T03:20:11.545Z,3.82
2016-12-29T03:21:44.855Z,3.85
2016-12-29T03:23:18.640Z,3.92
2016-12-29T03:24:52.158Z,3.95
2016-12-29T03:26:45.369Z,3.94
2016-12-29T03:28:18.860Z,3.89
2016-12-29T03:29:52.264Z,3.94
2016-12-29T03:31:25.563Z,3.95
2016-12-29T03:34:41.171Z,3.89
2016-12-29T03:36:33.678Z,3.88
2016-12-29T03:38:07.212Z,3.89
2016-12-29T03:39:40.813Z,3.86
2016-12-29T03:41:14.382Z,3.85
2016-12-29T03:42:47.878Z,3.88
2016-12-29T03:44:21.495Z,3.85
2016-12-29T03:45:54.875Z,3.94
2016-12-29T03:47:28.686Z,3.88
2016-12-29T03:49:01.922Z,3.91
2016-12-29T03:50:35.428Z,3.88
2016-12-29T03:52:09.490Z,3.84
2016-12-29T03:53:42.862Z,3.74
2016-12-29T03:55:16.885Z,3.82
2016-12-29T03:56:50.261Z,3.78
2016-12-29T03:58:24.309Z,3.71
2016-12-29T03:59:58.077Z,3.66
2016-12-29T04:01:31.732Z,3.74
2016-12-29T04:03:05.522Z,3.73
2016-12-29T04:04:39.167Z,3.89
2016-12-29T04:06:08.023Z,3.86
2016-12-29T04:07:41.770Z,3.91
2016-12-29T04:09:15.061Z,3.92
2016-12-29T04:10:48.342Z,3.91
2016-12-29T04:12:44.604Z,3.84
2016-12-29T04:14:17.866Z,3.88
2016-12-29T04:15:51.161Z,3.92
2016-12-29T04:17:24.633Z,3.82
2016-12-29T04:18:58.399Z,3.88
2016-12-29T04:20:31.806Z,3.74
2016-12-29T04:22:05.065Z,3.86
2016-12-29T04:23:38.311Z,3.82
2016-12-29T04:25:12.614Z,3.74
2016-12-29T04:26:46.161Z,3.73
2016-12-29T04:28:19.526Z,3.73
2016-12-29T04:29:52.886Z,3.71
2016-12-29T04:31:26.427Z,3.74
2016-12-29T04:33:00.508Z,3.7
2016-12-29T04:34:34.145Z,3.76
2016-12-29T04:36:10.136Z,3.78
2016-12-29T04:38:08.770Z,3.71
2016-12-29T04:40:07.644Z,3.66
2016-12-29T04:41:45.625Z,3.64
2016-12-29T04:43:22.511Z,3.59
2016-12-29T04:45:18.619Z,3.61
2016-12-29T04:46:52.177Z,3.53
2016-12-29T04:48:25.654Z,3.61
2016-12-29T04:49:59.817Z,3.58
2016-12-29T04:51:33.875Z,3.55
2016-12-29T04:53:07.655Z,3.55
2016-12-29T04:54:41.184Z,3.67
2016-12-29T04:56:14.729Z,3.66
2016-12-29T04:57:48.048Z,3.67
2016-12-29T04:59:21.807Z,3.7
2016-12-29T05:00:55.083Z,3.61
2016-12-29T05:02:29.024Z,3.64
2016-12-29T05:04:03.407Z,3.64
2016-12-29T05:05:36.920Z,3.43
2016-12-29T05:07:10.230Z,3.46
2016-12-29T05:09:02.948Z,3.43
2016-12-29T05:10:36.496Z,3.27
2016-12-29T05:12:10.001Z,3.29
2016-12-29T05:13:43.273Z,3.16
2016-12-29T05:15:16.860Z,3.19
2016-12-29T05:16:50.529Z,3.21
2016-12-29T05:18:23.766Z,3.18
2016-12-29T05:19:57.710Z,3.12
2016-12-29T05:21:31.295Z,3.09
2016-12-29T05:23:05.241Z,3.11
2016-12-29T05:24:38.732Z,3.16
2016-12-29T05:26:12.328Z,3.16
2016-12-29T05:27:46.283Z,3.16
2016-12-29T05:29:20.211Z,3.01
2016-12-29T05:30:53.850Z,3.01
2016-12-29T05:32:22.587Z,3.05
2016-12-29T05:33:56.107Z,3.11
2016-12-29T05:35:29.353Z,3.05
2016-12-29T05:37:02.657Z,3.09
2016-12-29T05:38:38.632Z,3.13
2016-12-29T05:40:12.123Z,3.08
2016-12-29T05:41:45.638Z,3.15
2016-12-29T05:43:19.626Z,3.19
2016-12-29T05:44:52.976Z,3.11
2016-12-29T05:46:45.973Z,3.05
2016-12-29T05:48:19.561Z,3.16
2016-12-29T05:49:53.387Z,3.12
2016-12-29T05:51:25.127Z,3.15
2016-12-29T05:52:58.691Z,3.09
2016-12-29T05:54:32.088Z,2.94
2016-12-29T05:56:06.668Z,3.03
2016-12-29T05:57:40.501Z,2.95
2016-12-29T05:59:08.803Z,2.98
2016-12-29T06:00:22.949Z,3.03
2016-12-29T06:01:56.259Z,2.98
2016-12-29T06:03:49.160Z,2.91
2016-12-29T06:05:22.706Z,2.98
2016-12-29T06:06:56.443Z,2.93
2016-12-29T06:08:29.761Z,2.91
2016-12-29T06:10:03.607Z,2.94
2016-12-29T06:11:37.145Z,2.93
2016-12-29T06:13:10.519Z,2.97
2016-12-29T06:14:43.878Z,2.95
2016-12-29T06:16:17.452Z,2.95
2016-12-29T06:17:52.054Z,2.87
2016-12-29T06:19:25.585Z,2.8
2016-12-29T06:20:59.204Z,2.68
2016-12-29T06:22:32.464Z,2.76
2016-12-29T06:24:05.989Z,2.73
2016-12-29T06:25:39.491Z,2.65
2016-12-29T06:27:13.128Z,2.64
2016-12-29T06:28:46.941Z,2.52
2016-12-29T06:30:20.459Z,2.57
2016-12-29T06:31:53.799Z,2.59
2016-12-29T06:33:27.300Z,2.54
2016-12-29T06:35:20.763Z,2.54
2016-12-29T06:36:54.061Z,2.4
2016-12-29T06:38:27.379Z,2.52
2016-12-29T06:40:00.884Z,2.54
2016-12-29T06:41:34.699Z,2.59
2016-12-29T06:43:07.994Z,2.52
2016-12-29T06:44:41.316Z,2.5
2016-12-29T06:46:14.616Z,2.57
2016-12-29T06:47:43.182Z,2.52
2016-12-29T06:49:16.717Z,2.55
2016-12-29T06:50:50.433Z,2.59
2016-12-29T06:52:24.208Z,2.54
2016-12-29T06:53:58.209Z,2.54
2016-12-29T06:55:27.584Z,2.62
2016-12-29T06:56:41.875Z,2.61
2016-12-29T06:58:15.183Z,2.61
2016-12-29T07:00:08.378Z,2.55
2016-12-29T07:01:42.134Z,2.59
2016-12-29T07:02:53.639Z,2.55
2016-12-29T07:04:24.559Z,2.52
2016-12-29T07:05:55.273Z,2.58
2016-12-29T07:07:26.202Z,2.69
2016-12-29T07:08:58.521Z,2.55
2016-12-29T07:10:29.171Z,2.52
2016-12-29T07:11:41.026Z,2.59
2016-12-29T07:13:33.829Z,2.5
2016-12-29T07:15:07.988Z,2.5
2016-12-29T07:16:41.938Z,2.54
2016-12-29T07:18:15.756Z,2.54
2016-12-29T07:19:49.084Z,2.5
2016-12-29T07:21:23.020Z,2.57
2016-12-29T07:22:56.790Z,2.51
2016-12-29T07:24:30.270Z,2.51
2016-12-29T07:26:03.540Z,2.4
2016-12-29T07:27:39.104Z,2.44
2016-12-29T07:29:13.077Z,2.46
2016-12-29T07:30:47.051Z,2.51
2016-12-29T07:32:21.108Z,2.51
2016-12-29T07:33:54.471Z,2.46
2016-12-29T07:35:46.914Z,2.54
2016-12-29T07:37:21.223Z,2.62
2016-12-29T07:38:54.604Z,2.58
2016-12-29T07:40:09.096Z,2.52
2016-12-29T07:41:42.840Z,2.51
2016-12-29T07:43:16.101Z,2.5
2016-12-29T07:45:09.383Z,2.47
2016-12-29T07:46:42.913Z,2.61
2016-12-29T07:48:16.353Z,2.61
2016-12-29T07:49:49.910Z,2.57
2016-12-29T07:51:23.667Z,2.62
2016-12-29T07:52:57.199Z,2.64
2016-12-29T07:54:30.504Z,2.73
2016-12-29T07:56:04.129Z,2.7
2016-12-29T07:57:39.362Z,2.75
2016-12-29T07:59:12.608Z,2.76
2016-12-29T08:00:45.978Z,2.68
2016-12-29T08:02:19.491Z,2.69
2016-12-29T08:03:53.547Z,2.69
2016-12-29T08:05:26.819Z,2.77
2016-12-29T08:07:22.666Z,2.8
2016-12-29T08:08:56.126Z,2.73
2016-12-29T08:10:29.404Z,2.76
2016-12-29T08:12:02.984Z,2.69
2016-12-29T08:13:38.458Z,2.64
2016-12-29T08:15:13.352Z,2.68
2016-12-29T08:16:47.882Z,2.75
2016-12-29T08:18:23.233Z,2.62
2016-12-29T08:20:17.407Z,2.73
2016-12-29T08:21:53.208Z,2.79
2016-12-29T08:23:28.413Z,2.8
2016-12-29T08:25:05.482Z,2.8
2016-12-29T08:27:01.346Z,2.83
2016-12-29T08:28:36.075Z,2.95
2016-12-29T08:30:09.776Z,2.94
2016-12-29T08:31:43.683Z,2.95
2016-12-29T08:33:17.459Z,2.98
2016-12-29T08:34:51.499Z,2.98
2016-12-29T08:36:24.777Z,2.98
2016-12-29T08:37:58.327Z,3.05
2016-12-29T08:39:31.853Z,3.12
2016-12-29T08:41:05.140Z,3.12
2016-12-29T08:42:41.123Z,3.11
2016-12-29T08:44:14.527Z,3.29
2016-12-29T08:46:07.492Z,3.3
2016-12-29T08:47:41.046Z,3.16
2016-12-29T08:49:14.420Z,3.26
2016-12-29T08:50:47.952Z,3.4
2016-12-29T08:52:21.237Z,3.41
2016-12-29T08:53:54.550Z,3.58
2016-12-29T08:55:28.045Z,3.58
2016-12-29T08:57:01.601Z,3.63
2016-12-29T08:58:35.188Z,3.66
2016-12-29T09:00:08.826Z,3.73
2016-12-29T09:01:42.075Z,3.71
2016-12-29T09:03:15.722Z,3.91
2016-12-29T09:04:50.161Z,3.84
2016-12-29T09:06:26.128Z,3.89
2016-12-29T09:07:59.778Z,3.94
2016-12-29T09:09:33.567Z,3.96
2016-12-29T09:11:26.386Z,3.91
2016-12-29T09:12:59.762Z,3.95
2016-12-29T09:14:33.244Z,4.04
2016-12-29T09:16:01.954Z,4.04
2016-12-29T09:17:16.084Z,3.95
2016-12-29T09:18:49.890Z,3.96
2016-12-29T09:20:23.100Z,4.04
2016-12-29T09:21:57.376Z,4.3
2016-12-29T09:23:50.433Z,4.74
2016-12-29T09:25:24.217Z,5.16
2016-12-29T09:26:57.476Z,5.07
2016-12-29T09:28:30.975Z,4.68
2016-12-29T09:30:04.719Z,4.56
2016-12-29T09:31:42.006Z,4.36
2016-12-29T09:34:17.071Z,4.32
2016-12-29T09:36:21.315Z,4.32
2016-12-29T09:37:56.371Z,4.3
2016-12-29T09:39:30.699Z,4.38
2016-12-29T09:41:04.241Z,4.3
2016-12-29T09:42:37.568Z,4.22
2016-12-29T09:45:09.866Z,4.36
2016-12-29T09:47:35.406Z,4.36
2016-12-29T09:49:37.491Z,4.38
2016-12-29T09:51:19.494Z,4.36
2016-12-29T09:53:20.140Z,4.42
2016-12-29T09:55:53.590Z,4.46
2016-12-29T09:57:57.713Z,4.45
2016-12-29T09:59:35.724Z,4.42
2016-12-29T10:02:01.461Z,4.49
2016-12-29T10:03:45.412Z,4.45
2016-12-29T10:05:19.505Z,4.46
2016-12-29T10:06:53.444Z,4.34
2016-12-29T10:08:26.982Z,4.46
2016-12-29T10:10:22.648Z,4.56
2016-12-29T10:14:33.295Z,4.56
2016-12-29T10:16:07.018Z,4.64
2016-12-29T10:17:41.020Z,4.68
2016-12-29T10:19:37.372Z,4.63
2016-12-29T10:21:42.702Z,4.61
2016-12-29T10:23:20.560Z,4.68
2016-12-29T10:25:22.584Z,4.63
2016-12-29T10:27:32.164Z,4.97
2016-12-29T10:29:29.352Z,4.89
2016-12-29T10:31:37.878Z,4.89
2016-12-29T10:33:45.569Z,5.01
2016-12-29T10:35:48.130Z,5.01
2016-12-29T10:37:47.843Z,5.07
2016-12-29T10:39:52.463Z,5.18
2016-12-29T10:42:00.561Z,5.23
2016-12-29T10:44:08.373Z,5.19
2016-12-29T10:46:36.804Z,5.37
2016-12-29T10:48:38.350Z,5.43
2016-12-29T10:50:44.405Z,5.4
2016-12-29T10:52:43.420Z,5.47
2016-12-29T10:54:47.528Z,5.51
2016-12-29T10:56:28.180Z,5.59
2016-12-29T10:58:01.764Z,5.73
2016-12-29T10:59:35.115Z,5.59
2016-12-29T11:01:11.369Z,5.74
2016-12-29T11:02:44.925Z,5.77
2016-12-29T11:04:18.597Z,5.79
2016-12-29T11:05:52.685Z,5.79
2016-12-29T11:07:21.334Z,5.73
2016-12-29T11:08:55.153Z,5.87
2016-12-29T11:10:28.936Z,5.84
2016-12-29T11:12:02.240Z,5.91
2016-12-29T11:13:36.022Z,5.92
2016-12-29T11:15:09.787Z,6.06
2016-12-29T11:16:43.189Z,6.02
2016-12-29T11:18:36.505Z,6.09
2016-12-29T11:20:09.780Z,6.1
2016-12-29T11:21:44.036Z,6.26
2016-12-29T11:23:17.814Z,6.13
2016-12-29T11:24:51.092Z,6.26
2016-12-29T11:26:24.911Z,6.22
2016-12-29T11:27:53.506Z,6.13
2016-12-29T11:29:27.196Z,6.15
2016-12-29T11:31:00.451Z,6.25
2016-12-29T11:32:33.718Z,6.22
2016-12-29T11:34:07.263Z,6.26
2016-12-29T11:35:40.564Z,6.19
2016-12-29T11:37:13.875Z,6.16
2016-12-29T11:38:47.517Z,6.22
2016-12-29T11:40:21.533Z,6.25
2016-12-29T11:41:55.501Z,6.22
2016-12-29T11:43:28.859Z,6.29
2016-12-29T11:45:02.115Z,6.17
2016-12-29T11:46:35.758Z,6.22
2016-12-29T11:48:09.044Z,6.38
2016-12-29T11:49:42.336Z,6.46
2016-12-29T11:51:15.869Z,6.5
2016-12-29T11:52:49.167Z,6.6
2016-12-29T11:54:22.789Z,6.56
2016-12-29T11:55:56.360Z,6.41
2016-12-29T11:57:30.094Z,6.39
2016-12-29T11:59:03.875Z,6.36
2016-12-29T12:00:37.186Z,6.36
2016-12-29T12:02:05.801Z,6.34
2016-12-29T12:06:15.975Z,6.39
2016-12-29T12:08:19.727Z,6.38
2016-12-29T12:09:53.054Z,6.29
2016-12-29T12:11:30.600Z,6.43
2016-12-29T12:12:59.061Z,6.52
2016-12-29T12:14:32.500Z,6.54
2016-12-29T12:16:05.824Z,6.41
2016-12-29T12:17:39.833Z,6.62
2016-12-29T12:19:13.906Z,6.64
2016-12-29T12:20:47.248Z,6.56
2016-12-29T12:22:20.958Z,6.67
2016-12-29T12:23:54.802Z,6.65
2016-12-29T12:25:47.506Z,6.72
2016-12-29T12:27:48.743Z,6.77
2016-12-29T12:30:01.137Z,6.8
2016-12-29T12:31:38.396Z,6.62
2016-12-29T12:33:37.397Z,6.75
2016-12-29T12:35:37.177Z,6.87
2016-12-29T12:37:10.813Z,7.01
2016-12-29T12:38:38.984Z,7.05
2016-12-29T12:39:53.327Z,6.96
2016-12-29T12:41:48.926Z,7.08
2016-12-29T12:43:22.251Z,7.32
2016-12-29T12:44:55.599Z,7.29
2016-12-29T12:46:29.680Z,7.25
2016-12-29T12:48:03.190Z,7.22
2016-12-29T12:49:36.788Z,7.11
2016-12-29T12:51:13.458Z,7.26
